sensor_id;sensor_type;location;lat;lon;timestamp;P1;P2;P0
83626;PMS5003;73589;41.158;-73.238;2023-12-14T00:01:11;0;0;
83626;PMS5003;73589;41.158;-73.238;2023-12-14T00:03:41;0;0;
83626;PMS5003;73589;41.158;-73.238;2023-12-14T00:06:13;0;0;
83626;PMS5003;73589;41.158;-73.238;2023-12-14T00:08:43;0;0;
83626;PMS5003;73589;41.158;-73.238;2023-12-14T00:11:13;0;0;
83626;PMS5003;73589;41.158;-73.238;2023-12-14T00:13:44;0;0;
83626;PMS5003;73589;41.158;-73.238;2023-12-14T00:16:14;0;0;
83626;PMS5003;73589;41.158;-73.238;2023-12-14T00:18:44;0;0;
83626;PMS5003;73589;41.158;-73.238;2023-12-14T00:21:15;0;0;
83626;PMS5003;73589;41.158;-73.238;2023-12-14T00:23:45;0;0;
83626;PMS5003;73589;41.158;-73.238;2023-12-14T00:26:15;0;0;
83626;PMS5003;73589;41.158;-73.238;2023-12-14T00:28:46;0;0;
83626;PMS5003;73589;41.158;-73.238;2023-12-14T00:31:16;0;0;
83626;PMS5003;73589;41.158;-73.238;2023-12-14T00:33:46;0;0;
83626;PMS5003;73589;41.158;-73.238;2023-12-14T00:36:18;0;0;
83626;PMS5003;73589;41.158;-73.238;2023-12-14T00:38:47;0;0;
83626;PMS5003;73589;41.158;-73.238;2023-12-14T00:41:18;0;0;
83626;PMS5003;73589;41.158;-73.238;2023-12-14T00:43:49;0;0;
83626;PMS5003;73589;41.158;-73.238;2023-12-14T00:46:19;0;0;
83626;PMS5003;73589;41.158;-73.238;2023-12-14T00:48:50;0;0;
83626;PMS5003;73589;41.158;-73.238;2023-12-14T00:51:21;0;0;
83626;PMS5003;73589;41.158;-73.238;2023-12-14T00:53:51;0;0;
83626;PMS5003;73589;41.158;-73.238;2023-12-14T00:56:22;0;0;
83626;PMS5003;73589;41.158;-73.238;2023-12-14T00:58:52;0;0;
83626;PMS5003;73589;41.158;-73.238;2023-12-14T01:01:22;0;0;
83626;PMS5003;73589;41.158;-73.238;2023-12-14T01:03:53;0;0;
83626;PMS5003;73589;41.158;-73.238;2023-12-14T01:06:23;0;0;
83626;PMS5003;73589;41.158;-73.238;2023-12-14T01:08:53;0;0;
83626;PMS5003;73589;41.158;-73.238;2023-12-14T01:11:24;0;0;
83626;PMS5003;73589;41.158;-73.238;2023-12-14T01:13:54;0;0;
83626;PMS5003;73589;41.158;-73.238;2023-12-14T01:16:25;0;0;
83626;PMS5003;73589;41.158;-73.238;2023-12-14T01:18:55;0;0;
83626;PMS5003;73589;41.158;-73.238;2023-12-14T01:21:25;0;0;
83626;PMS5003;73589;41.158;-73.238;2023-12-14T01:23:56;0;0;
83626;PMS5003;73589;41.158;-73.238;2023-12-14T01:26:26;0;0;
83626;PMS5003;73589;41.158;-73.238;2023-12-14T01:28:56;0;0;
83626;PMS5003;73589;41.158;-73.238;2023-12-14T01:31:28;2;0;
83626;PMS5003;73589;41.158;-73.238;2023-12-14T01:33:57;2;2;
83626;PMS5003;73589;41.158;-73.238;2023-12-14T01:36:28;8;7;
83626;PMS5003;73589;41.158;-73.238;2023-12-14T01:38:59;6;6;
83626;PMS5003;73589;41.158;-73.238;2023-12-14T01:41:29;4;4;
83626;PMS5003;73589;41.158;-73.238;2023-12-14T01:43:59;6;5;
83626;PMS5003;73589;41.158;-73.238;2023-12-14T01:46:30;7;6;
83626;PMS5003;73589;41.158;-73.238;2023-12-14T01:49:00;7;6;
83626;PMS5003;73589;41.158;-73.238;2023-12-14T01:51:30;19;13;
83626;PMS5003;73589;41.158;-73.238;2023-12-14T01:54:01;25;21;
83626;PMS5003;73589;41.158;-73.238;2023-12-14T01:56:31;29;26;
83626;PMS5003;73589;41.158;-73.238;2023-12-14T01:59:01;44;29;
83626;PMS5003;73589;41.158;-73.238;2023-12-14T02:01:33;45;33;
83626;PMS5003;73589;41.158;-73.238;2023-12-14T02:04:02;35;27;
83626;PMS5003;73589;41.158;-73.238;2023-12-14T02:06:32;25;22;
83626;PMS5003;73589;41.158;-73.238;2023-12-14T02:09:03;27;19;
83626;PMS5003;73589;41.158;-73.238;2023-12-14T02:11:33;19;16;
83626;PMS5003;73589;41.158;-73.238;2023-12-14T02:14:04;25;19;
83626;PMS5003;73589;41.158;-73.238;2023-12-14T02:16:34;23;18;
83626;PMS5003;73589;41.158;-73.238;2023-12-14T02:19:05;26;19;
83626;PMS5003;73589;41.158;-73.238;2023-12-14T02:21:36;19;13;
83626;PMS5003;73589;41.158;-73.238;2023-12-14T02:24:06;14;13;
83626;PMS5003;73589;41.158;-73.238;2023-12-14T02:26:36;26;15;
83626;PMS5003;73589;41.158;-73.238;2023-12-14T02:29:07;22;13;
83626;PMS5003;73589;41.158;-73.238;2023-12-14T02:31:38;12;11;
83626;PMS5003;73589;41.158;-73.238;2023-12-14T02:34:07;16;11;
83626;PMS5003;73589;41.158;-73.238;2023-12-14T02:36:38;16;14;
83626;PMS5003;73589;41.158;-73.238;2023-12-14T02:39:09;16;11;
83626;PMS5003;73589;41.158;-73.238;2023-12-14T02:41:39;11;10;
83626;PMS5003;73589;41.158;-73.238;2023-12-14T02:44:09;13;12;
83626;PMS5003;73589;41.158;-73.238;2023-12-14T02:46:40;13;13;
83626;PMS5003;73589;41.158;-73.238;2023-12-14T02:49:11;12;10;
83626;PMS5003;73589;41.158;-73.238;2023-12-14T02:51:41;7;6;
83626;PMS5003;73589;41.158;-73.238;2023-12-14T02:54:12;8;7;
83626;PMS5003;73589;41.158;-73.238;2023-12-14T02:56:43;5;5;
83626;PMS5003;73589;41.158;-73.238;2023-12-14T02:59:13;6;5;
83626;PMS5003;73589;41.158;-73.238;2023-12-14T03:01:44;6;5;
83626;PMS5003;73589;41.158;-73.238;2023-12-14T03:04:14;6;5;
83626;PMS5003;73589;41.158;-73.238;2023-12-14T03:06:45;5;5;
83626;PMS5003;73589;41.158;-73.238;2023-12-14T03:09:16;6;6;
83626;PMS5003;73589;41.158;-73.238;2023-12-14T03:11:47;6;5;
83626;PMS5003;73589;41.158;-73.238;2023-12-14T03:14:17;5;5;
83626;PMS5003;73589;41.158;-73.238;2023-12-14T03:16:47;5;4;
83626;PMS5003;73589;41.158;-73.238;2023-12-14T03:19:18;4;4;
83626;PMS5003;73589;41.158;-73.238;2023-12-14T03:21:47;4;4;
83626;PMS5003;73589;41.158;-73.238;2023-12-14T03:24:17;4;4;
83626;PMS5003;73589;41.158;-73.238;2023-12-14T03:26:49;2;2;
83626;PMS5003;73589;41.158;-73.238;2023-12-14T03:29:18;2;2;
83626;PMS5003;73589;41.158;-73.238;2023-12-14T03:31:49;3;2;
83626;PMS5003;73589;41.158;-73.238;2023-12-14T03:34:20;5;4;
83626;PMS5003;73589;41.158;-73.238;2023-12-14T03:36:50;3;3;
83626;PMS5003;73589;41.158;-73.238;2023-12-14T03:39:20;4;3;
83626;PMS5003;73589;41.158;-73.238;2023-12-14T03:41:51;3;2;
83626;PMS5003;73589;41.158;-73.238;2023-12-14T03:44:21;4;3;
83626;PMS5003;73589;41.158;-73.238;2023-12-14T03:46:51;3;2;
83626;PMS5003;73589;41.158;-73.238;2023-12-14T03:49:22;1;1;
83626;PMS5003;73589;41.158;-73.238;2023-12-14T03:51:58;1;1;
83626;PMS5003;73589;41.158;-73.238;2023-12-14T03:54:23;3;3;
83626;PMS5003;73589;41.158;-73.238;2023-12-14T03:56:54;2;2;
83626;PMS5003;73589;41.158;-73.238;2023-12-14T03:59:25;0;0;
83626;PMS5003;73589;41.158;-73.238;2023-12-14T04:01:55;0;0;
83626;PMS5003;73589;41.158;-73.238;2023-12-14T04:04:26;2;2;
83626;PMS5003;73589;41.158;-73.238;2023-12-14T04:06:57;2;1;
83626;PMS5003;73589;41.158;-73.238;2023-12-14T04:09:27;2;2;
83626;PMS5003;73589;41.158;-73.238;2023-12-14T04:11:57;1;1;
83626;PMS5003;73589;41.158;-73.238;2023-12-14T04:14:28;0;0;
83626;PMS5003;73589;41.158;-73.238;2023-12-14T04:16:58;2;1;
83626;PMS5003;73589;41.158;-73.238;2023-12-14T04:19:29;0;0;
83626;PMS5003;73589;41.158;-73.238;2023-12-14T04:21:59;1;1;
83626;PMS5003;73589;41.158;-73.238;2023-12-14T04:24:30;0;0;
83626;PMS5003;73589;41.158;-73.238;2023-12-14T04:27:01;1;1;
83626;PMS5003;73589;41.158;-73.238;2023-12-14T04:29:31;1;1;
83626;PMS5003;73589;41.158;-73.238;2023-12-14T04:32:02;0;0;
83626;PMS5003;73589;41.158;-73.238;2023-12-14T04:34:33;1;1;
83626;PMS5003;73589;41.158;-73.238;2023-12-14T04:37:03;0;0;
83626;PMS5003;73589;41.158;-73.238;2023-12-14T04:39:34;0;0;
83626;PMS5003;73589;41.158;-73.238;2023-12-14T04:42:05;0;0;
83626;PMS5003;73589;41.158;-73.238;2023-12-14T04:44:35;1;1;
83626;PMS5003;73589;41.158;-73.238;2023-12-14T04:47:06;0;0;
83626;PMS5003;73589;41.158;-73.238;2023-12-14T04:49:37;1;1;
83626;PMS5003;73589;41.158;-73.238;2023-12-14T04:52:06;0;0;
83626;PMS5003;73589;41.158;-73.238;2023-12-14T04:54:37;0;0;
83626;PMS5003;73589;41.158;-73.238;2023-12-14T04:57:08;0;0;
83626;PMS5003;73589;41.158;-73.238;2023-12-14T04:59:40;0;0;
83626;PMS5003;73589;41.158;-73.238;2023-12-14T05:02:09;1;1;
83626;PMS5003;73589;41.158;-73.238;2023-12-14T05:04:39;1;0;
83626;PMS5003;73589;41.158;-73.238;2023-12-14T05:07:09;0;0;
83626;PMS5003;73589;41.158;-73.238;2023-12-14T05:09:39;0;0;
83626;PMS5003;73589;41.158;-73.238;2023-12-14T05:12:10;1;1;
83626;PMS5003;73589;41.158;-73.238;2023-12-14T05:14:41;0;0;
83626;PMS5003;73589;41.158;-73.238;2023-12-14T05:17:11;0;0;
83626;PMS5003;73589;41.158;-73.238;2023-12-14T05:19:39;1;1;
83626;PMS5003;73589;41.158;-73.238;2023-12-14T05:22:10;1;0;
83626;PMS5003;73589;41.158;-73.238;2023-12-14T05:24:40;0;0;
83626;PMS5003;73589;41.158;-73.238;2023-12-14T05:27:09;0;0;
83626;PMS5003;73589;41.158;-73.238;2023-12-14T05:29:41;0;0;
83626;PMS5003;73589;41.158;-73.238;2023-12-14T05:32:11;0;0;
83626;PMS5003;73589;41.158;-73.238;2023-12-14T05:34:40;0;0;
83626;PMS5003;73589;41.158;-73.238;2023-12-14T05:37:12;1;1;
83626;PMS5003;73589;41.158;-73.238;2023-12-14T05:39:42;0;0;
83626;PMS5003;73589;41.158;-73.238;2023-12-14T05:42:12;0;0;
83626;PMS5003;73589;41.158;-73.238;2023-12-14T05:44:43;0;0;
83626;PMS5003;73589;41.158;-73.238;2023-12-14T05:47:13;0;0;
83626;PMS5003;73589;41.158;-73.238;2023-12-14T05:49:44;0;0;
83626;PMS5003;73589;41.158;-73.238;2023-12-14T05:52:14;0;0;
83626;PMS5003;73589;41.158;-73.238;2023-12-14T05:54:44;1;0;
83626;PMS5003;73589;41.158;-73.238;2023-12-14T05:57:15;0;0;
83626;PMS5003;73589;41.158;-73.238;2023-12-14T05:59:45;0;0;
83626;PMS5003;73589;41.158;-73.238;2023-12-14T06:02:15;0;0;
83626;PMS5003;73589;41.158;-73.238;2023-12-14T06:04:47;0;0;
83626;PMS5003;73589;41.158;-73.238;2023-12-14T06:07:16;0;0;
83626;PMS5003;73589;41.158;-73.238;2023-12-14T06:09:46;0;0;
83626;PMS5003;73589;41.158;-73.238;2023-12-14T06:12:18;0;0;
83626;PMS5003;73589;41.158;-73.238;2023-12-14T06:14:47;0;0;
83626;PMS5003;73589;41.158;-73.238;2023-12-14T06:17:17;0;0;
83626;PMS5003;73589;41.158;-73.238;2023-12-14T06:19:49;0;0;
83626;PMS5003;73589;41.158;-73.238;2023-12-14T06:22:18;0;0;
83626;PMS5003;73589;41.158;-73.238;2023-12-14T06:24:49;0;0;
83626;PMS5003;73589;41.158;-73.238;2023-12-14T06:27:20;0;0;
83626;PMS5003;73589;41.158;-73.238;2023-12-14T06:29:50;0;0;
83626;PMS5003;73589;41.158;-73.238;2023-12-14T06:32:20;0;0;
83626;PMS5003;73589;41.158;-73.238;2023-12-14T06:34:51;0;0;
83626;PMS5003;73589;41.158;-73.238;2023-12-14T06:37:21;0;0;
83626;PMS5003;73589;41.158;-73.238;2023-12-14T06:39:52;0;0;
83626;PMS5003;73589;41.158;-73.238;2023-12-14T06:42:22;0;0;
83626;PMS5003;73589;41.158;-73.238;2023-12-14T06:44:52;0;0;
83626;PMS5003;73589;41.158;-73.238;2023-12-14T06:47:23;0;0;
83626;PMS5003;73589;41.158;-73.238;2023-12-14T06:49:53;1;0;
83626;PMS5003;73589;41.158;-73.238;2023-12-14T06:52:23;0;0;
83626;PMS5003;73589;41.158;-73.238;2023-12-14T06:54:54;0;0;
83626;PMS5003;73589;41.158;-73.238;2023-12-14T06:57:24;0;0;
83626;PMS5003;73589;41.158;-73.238;2023-12-14T06:59:54;0;0;
83626;PMS5003;73589;41.158;-73.238;2023-12-14T07:02:25;0;0;
83626;PMS5003;73589;41.158;-73.238;2023-12-14T07:04:55;0;0;
83626;PMS5003;73589;41.158;-73.238;2023-12-14T07:07:26;0;0;
83626;PMS5003;73589;41.158;-73.238;2023-12-14T07:09:56;0;0;
83626;PMS5003;73589;41.158;-73.238;2023-12-14T07:12:26;0;0;
83626;PMS5003;73589;41.158;-73.238;2023-12-14T07:14:58;0;0;
83626;PMS5003;73589;41.158;-73.238;2023-12-14T07:17:29;0;0;
83626;PMS5003;73589;41.158;-73.238;2023-12-14T07:19:58;0;0;
83626;PMS5003;73589;41.158;-73.238;2023-12-14T07:22:30;0;0;
83626;PMS5003;73589;41.158;-73.238;2023-12-14T07:25:00;0;0;
83626;PMS5003;73589;41.158;-73.238;2023-12-14T07:27:29;0;0;
83626;PMS5003;73589;41.158;-73.238;2023-12-14T07:30:01;0;0;
83626;PMS5003;73589;41.158;-73.238;2023-12-14T07:32:31;0;0;
83626;PMS5003;73589;41.158;-73.238;2023-12-14T07:35:00;0;0;
83626;PMS5003;73589;41.158;-73.238;2023-12-14T07:37:32;0;0;
83626;PMS5003;73589;41.158;-73.238;2023-12-14T07:40:02;0;0;
83626;PMS5003;73589;41.158;-73.238;2023-12-14T07:42:32;0;0;
83626;PMS5003;73589;41.158;-73.238;2023-12-14T07:45:03;0;0;
83626;PMS5003;73589;41.158;-73.238;2023-12-14T07:47:33;0;0;
83626;PMS5003;73589;41.158;-73.238;2023-12-14T07:50:04;0;0;
83626;PMS5003;73589;41.158;-73.238;2023-12-14T07:52:34;0;0;
83626;PMS5003;73589;41.158;-73.238;2023-12-14T07:55:04;0;0;
83626;PMS5003;73589;41.158;-73.238;2023-12-14T07:57:35;0;0;
83626;PMS5003;73589;41.158;-73.238;2023-12-14T08:00:05;0;0;
83626;PMS5003;73589;41.158;-73.238;2023-12-14T08:02:35;1;0;
83626;PMS5003;73589;41.158;-73.238;2023-12-14T08:05:05;0;0;
83626;PMS5003;73589;41.158;-73.238;2023-12-14T08:07:36;0;0;
83626;PMS5003;73589;41.158;-73.238;2023-12-14T08:10:07;0;0;
83626;PMS5003;73589;41.158;-73.238;2023-12-14T08:12:36;0;0;
83626;PMS5003;73589;41.158;-73.238;2023-12-14T08:15:07;0;0;
83626;PMS5003;73589;41.158;-73.238;2023-12-14T08:17:37;0;0;
83626;PMS5003;73589;41.158;-73.238;2023-12-14T08:20:07;0;0;
83626;PMS5003;73589;41.158;-73.238;2023-12-14T08:22:38;0;0;
83626;PMS5003;73589;41.158;-73.238;2023-12-14T08:25:08;0;0;
83626;PMS5003;73589;41.158;-73.238;2023-12-14T08:27:38;0;0;
83626;PMS5003;73589;41.158;-73.238;2023-12-14T08:30:08;0;0;
83626;PMS5003;73589;41.158;-73.238;2023-12-14T08:32:38;0;0;
83626;PMS5003;73589;41.158;-73.238;2023-12-14T08:35:08;0;0;
83626;PMS5003;73589;41.158;-73.238;2023-12-14T08:37:38;0;0;
83626;PMS5003;73589;41.158;-73.238;2023-12-14T08:40:10;0;0;
83626;PMS5003;73589;41.158;-73.238;2023-12-14T08:42:39;0;0;
83626;PMS5003;73589;41.158;-73.238;2023-12-14T08:45:11;0;0;
83626;PMS5003;73589;41.158;-73.238;2023-12-14T08:47:42;0;0;
83626;PMS5003;73589;41.158;-73.238;2023-12-14T08:50:11;0;0;
83626;PMS5003;73589;41.158;-73.238;2023-12-14T08:52:43;0;0;
83626;PMS5003;73589;41.158;-73.238;2023-12-14T08:55:14;0;0;
83626;PMS5003;73589;41.158;-73.238;2023-12-14T08:57:43;0;0;
83626;PMS5003;73589;41.158;-73.238;2023-12-14T09:00:15;0;0;
83626;PMS5003;73589;41.158;-73.238;2023-12-14T09:02:45;0;0;
83626;PMS5003;73589;41.158;-73.238;2023-12-14T09:05:14;0;0;
83626;PMS5003;73589;41.158;-73.238;2023-12-14T09:07:46;0;0;
83626;PMS5003;73589;41.158;-73.238;2023-12-14T09:10:16;0;0;
83626;PMS5003;73589;41.158;-73.238;2023-12-14T09:12:46;0;0;
83626;PMS5003;73589;41.158;-73.238;2023-12-14T09:15:17;0;0;
83626;PMS5003;73589;41.158;-73.238;2023-12-14T09:17:47;0;0;
83626;PMS5003;73589;41.158;-73.238;2023-12-14T09:20:17;0;0;
83626;PMS5003;73589;41.158;-73.238;2023-12-14T09:22:48;0;0;
83626;PMS5003;73589;41.158;-73.238;2023-12-14T09:25:18;0;0;
83626;PMS5003;73589;41.158;-73.238;2023-12-14T09:27:48;0;0;
83626;PMS5003;73589;41.158;-73.238;2023-12-14T09:30:19;0;0;
83626;PMS5003;73589;41.158;-73.238;2023-12-14T09:32:49;0;0;
83626;PMS5003;73589;41.158;-73.238;2023-12-14T09:35:20;0;0;
83626;PMS5003;73589;41.158;-73.238;2023-12-14T09:37:50;0;0;
83626;PMS5003;73589;41.158;-73.238;2023-12-14T09:40:20;0;0;
83626;PMS5003;73589;41.158;-73.238;2023-12-14T09:42:52;0;0;
83626;PMS5003;73589;41.158;-73.238;2023-12-14T09:45:22;0;0;
83626;PMS5003;73589;41.158;-73.238;2023-12-14T09:47:52;0;0;
83626;PMS5003;73589;41.158;-73.238;2023-12-14T09:50:23;0;0;
83626;PMS5003;73589;41.158;-73.238;2023-12-14T09:52:52;0;0;
83626;PMS5003;73589;41.158;-73.238;2023-12-14T09:55:22;0;0;
83626;PMS5003;73589;41.158;-73.238;2023-12-14T09:57:53;0;0;
83626;PMS5003;73589;41.158;-73.238;2023-12-14T10:02:54;0;0;
83626;PMS5003;73589;41.158;-73.238;2023-12-14T10:05:25;0;0;
83626;PMS5003;73589;41.158;-73.238;2023-12-14T10:07:56;0;0;
83626;PMS5003;73589;41.158;-73.238;2023-12-14T10:10:28;0;0;
83626;PMS5003;73589;41.158;-73.238;2023-12-14T10:12:57;0;0;
83626;PMS5003;73589;41.158;-73.238;2023-12-14T10:15:28;0;0;
83626;PMS5003;73589;41.158;-73.238;2023-12-14T10:17:58;0;0;
83626;PMS5003;73589;41.158;-73.238;2023-12-14T10:20:30;0;0;
83626;PMS5003;73589;41.158;-73.238;2023-12-14T10:23:00;0;0;
83626;PMS5003;73589;41.158;-73.238;2023-12-14T10:25:30;0;0;
83626;PMS5003;73589;41.158;-73.238;2023-12-14T10:28:00;0;0;
83626;PMS5003;73589;41.158;-73.238;2023-12-14T10:30:31;0;0;
83626;PMS5003;73589;41.158;-73.238;2023-12-14T10:33:01;0;0;
83626;PMS5003;73589;41.158;-73.238;2023-12-14T10:35:32;0;0;
83626;PMS5003;73589;41.158;-73.238;2023-12-14T10:38:03;0;0;
83626;PMS5003;73589;41.158;-73.238;2023-12-14T10:40:32;0;0;
83626;PMS5003;73589;41.158;-73.238;2023-12-14T10:43:02;0;0;
83626;PMS5003;73589;41.158;-73.238;2023-12-14T10:45:34;0;0;
83626;PMS5003;73589;41.158;-73.238;2023-12-14T10:48:05;0;0;
83626;PMS5003;73589;41.158;-73.238;2023-12-14T10:50:34;0;0;
83626;PMS5003;73589;41.158;-73.238;2023-12-14T10:53:06;0;0;
83626;PMS5003;73589;41.158;-73.238;2023-12-14T10:55:37;0;0;
83626;PMS5003;73589;41.158;-73.238;2023-12-14T10:58:07;0;0;
83626;PMS5003;73589;41.158;-73.238;2023-12-14T11:00:37;0;0;
83626;PMS5003;73589;41.158;-73.238;2023-12-14T11:03:07;0;0;
83626;PMS5003;73589;41.158;-73.238;2023-12-14T11:05:37;0;0;
83626;PMS5003;73589;41.158;-73.238;2023-12-14T11:08:07;0;0;
83626;PMS5003;73589;41.158;-73.238;2023-12-14T11:10:38;0;0;
83626;PMS5003;73589;41.158;-73.238;2023-12-14T11:13:08;0;0;
83626;PMS5003;73589;41.158;-73.238;2023-12-14T11:15:38;0;0;
83626;PMS5003;73589;41.158;-73.238;2023-12-14T11:23:10;0;0;
83626;PMS5003;73589;41.158;-73.238;2023-12-14T11:25:40;0;0;
83626;PMS5003;73589;41.158;-73.238;2023-12-14T11:28:10;0;0;
83626;PMS5003;73589;41.158;-73.238;2023-12-14T11:30:42;0;0;
83626;PMS5003;73589;41.158;-73.238;2023-12-14T11:33:12;0;0;
83626;PMS5003;73589;41.158;-73.238;2023-12-14T11:35:42;0;0;
83626;PMS5003;73589;41.158;-73.238;2023-12-14T11:38:12;0;0;
83626;PMS5003;73589;41.158;-73.238;2023-12-14T11:40:43;0;0;
83626;PMS5003;73589;41.158;-73.238;2023-12-14T11:43:14;0;0;
83626;PMS5003;73589;41.158;-73.238;2023-12-14T11:45:44;0;0;
83626;PMS5003;73589;41.158;-73.238;2023-12-14T11:48:15;0;0;
83626;PMS5003;73589;41.158;-73.238;2023-12-14T11:50:46;0;0;
83626;PMS5003;73589;41.158;-73.238;2023-12-14T11:53:15;0;0;
83626;PMS5003;73589;41.158;-73.238;2023-12-14T11:55:46;0;0;
83626;PMS5003;73589;41.158;-73.238;2023-12-14T11:58:17;0;0;
83626;PMS5003;73589;41.158;-73.238;2023-12-14T12:00:47;0;0;
83626;PMS5003;73589;41.158;-73.238;2023-12-14T12:03:17;0;0;
83626;PMS5003;73589;41.158;-73.238;2023-12-14T12:05:48;0;0;
83626;PMS5003;73589;41.158;-73.238;2023-12-14T12:08:18;0;0;
83626;PMS5003;73589;41.158;-73.238;2023-12-14T12:10:48;0;0;
83626;PMS5003;73589;41.158;-73.238;2023-12-14T12:13:19;2;1;
83626;PMS5003;73589;41.158;-73.238;2023-12-14T12:15:49;1;1;
83626;PMS5003;73589;41.158;-73.238;2023-12-14T12:18:19;3;1;
83626;PMS5003;73589;41.158;-73.238;2023-12-14T12:20:50;0;0;
83626;PMS5003;73589;41.158;-73.238;2023-12-14T12:23:21;0;0;
83626;PMS5003;73589;41.158;-73.238;2023-12-14T12:25:51;0;0;
83626;PMS5003;73589;41.158;-73.238;2023-12-14T12:28:22;0;0;
83626;PMS5003;73589;41.158;-73.238;2023-12-14T12:30:52;0;0;
83626;PMS5003;73589;41.158;-73.238;2023-12-14T12:33:28;0;0;
83626;PMS5003;73589;41.158;-73.238;2023-12-14T12:35:54;0;0;
83626;PMS5003;73589;41.158;-73.238;2023-12-14T12:38:25;0;0;
83626;PMS5003;73589;41.158;-73.238;2023-12-14T12:40:55;0;0;
83626;PMS5003;73589;41.158;-73.238;2023-12-14T12:43:26;0;0;
83626;PMS5003;73589;41.158;-73.238;2023-12-14T12:45:56;0;0;
83626;PMS5003;73589;41.158;-73.238;2023-12-14T12:48:27;0;0;
83626;PMS5003;73589;41.158;-73.238;2023-12-14T12:50:59;0;0;
83626;PMS5003;73589;41.158;-73.238;2023-12-14T12:53:28;0;0;
83626;PMS5003;73589;41.158;-73.238;2023-12-14T12:55:59;0;0;
83626;PMS5003;73589;41.158;-73.238;2023-12-14T12:58:30;0;0;
83626;PMS5003;73589;41.158;-73.238;2023-12-14T13:01:00;0;0;
83626;PMS5003;73589;41.158;-73.238;2023-12-14T13:03:31;0;0;
83626;PMS5003;73589;41.158;-73.238;2023-12-14T13:06:03;0;0;
83626;PMS5003;73589;41.158;-73.238;2023-12-14T13:08:32;0;0;
83626;PMS5003;73589;41.158;-73.238;2023-12-14T13:11:03;0;0;
83626;PMS5003;73589;41.158;-73.238;2023-12-14T13:13:34;0;0;
83626;PMS5003;73589;41.158;-73.238;2023-12-14T13:16:04;0;0;
83626;PMS5003;73589;41.158;-73.238;2023-12-14T13:18:36;0;0;
83626;PMS5003;73589;41.158;-73.238;2023-12-14T13:21:06;0;0;
83626;PMS5003;73589;41.158;-73.238;2023-12-14T13:23:36;0;0;
83626;PMS5003;73589;41.158;-73.238;2023-12-14T13:26:07;0;0;
83626;PMS5003;73589;41.158;-73.238;2023-12-14T13:28:38;1;1;
83626;PMS5003;73589;41.158;-73.238;2023-12-14T13:31:07;4;4;
83626;PMS5003;73589;41.158;-73.238;2023-12-14T13:33:39;6;5;
83626;PMS5003;73589;41.158;-73.238;2023-12-14T13:36:09;7;6;
83626;PMS5003;73589;41.158;-73.238;2023-12-14T13:38:39;4;4;
83626;PMS5003;73589;41.158;-73.238;2023-12-14T13:41:11;5;3;
83626;PMS5003;73589;41.158;-73.238;2023-12-14T13:43:40;6;5;
83626;PMS5003;73589;41.158;-73.238;2023-12-14T13:46:12;3;3;
83626;PMS5003;73589;41.158;-73.238;2023-12-14T13:48:42;3;2;
83626;PMS5003;73589;41.158;-73.238;2023-12-14T13:51:12;1;1;
83626;PMS5003;73589;41.158;-73.238;2023-12-14T13:53:44;3;3;
83626;PMS5003;73589;41.158;-73.238;2023-12-14T13:56:14;4;3;
83626;PMS5003;73589;41.158;-73.238;2023-12-14T13:58:44;5;5;
83626;PMS5003;73589;41.158;-73.238;2023-12-14T14:01:16;4;3;
83626;PMS5003;73589;41.158;-73.238;2023-12-14T14:03:45;2;2;
83626;PMS5003;73589;41.158;-73.238;2023-12-14T14:06:15;2;2;
83626;PMS5003;73589;41.158;-73.238;2023-12-14T14:08:47;1;1;
83626;PMS5003;73589;41.158;-73.238;2023-12-14T14:11:17;1;0;
83626;PMS5003;73589;41.158;-73.238;2023-12-14T14:13:47;1;1;
83626;PMS5003;73589;41.158;-73.238;2023-12-14T14:16:19;2;2;
83626;PMS5003;73589;41.158;-73.238;2023-12-14T14:18:48;2;2;
83626;PMS5003;73589;41.158;-73.238;2023-12-14T14:21:19;3;2;
83626;PMS5003;73589;41.158;-73.238;2023-12-14T14:23:51;2;2;
83626;PMS5003;73589;41.158;-73.238;2023-12-14T14:26:20;2;2;
83626;PMS5003;73589;41.158;-73.238;2023-12-14T14:28:52;4;3;
83626;PMS5003;73589;41.158;-73.238;2023-12-14T14:31:22;1;1;
83626;PMS5003;73589;41.158;-73.238;2023-12-14T14:33:52;3;2;
83626;PMS5003;73589;41.158;-73.238;2023-12-14T14:36:23;3;2;
83626;PMS5003;73589;41.158;-73.238;2023-12-14T14:38:53;2;1;
83626;PMS5003;73589;41.158;-73.238;2023-12-14T14:41:23;3;2;
83626;PMS5003;73589;41.158;-73.238;2023-12-14T14:43:55;0;0;
83626;PMS5003;73589;41.158;-73.238;2023-12-14T14:46:24;0;0;
83626;PMS5003;73589;41.158;-73.238;2023-12-14T14:48:54;0;0;
83626;PMS5003;73589;41.158;-73.238;2023-12-14T14:51:26;1;1;
83626;PMS5003;73589;41.158;-73.238;2023-12-14T14:53:55;1;1;
83626;PMS5003;73589;41.158;-73.238;2023-12-14T14:56:25;0;0;
83626;PMS5003;73589;41.158;-73.238;2023-12-14T14:58:57;1;0;
83626;PMS5003;73589;41.158;-73.238;2023-12-14T15:01:26;1;1;
83626;PMS5003;73589;41.158;-73.238;2023-12-14T15:03:58;0;0;
83626;PMS5003;73589;41.158;-73.238;2023-12-14T15:06:29;0;0;
83626;PMS5003;73589;41.158;-73.238;2023-12-14T15:08:59;0;0;
83626;PMS5003;73589;41.158;-73.238;2023-12-14T15:11:30;0;0;
83626;PMS5003;73589;41.158;-73.238;2023-12-14T15:14:00;0;0;
83626;PMS5003;73589;41.158;-73.238;2023-12-14T15:16:29;0;0;
83626;PMS5003;73589;41.158;-73.238;2023-12-14T15:19:01;0;0;
83626;PMS5003;73589;41.158;-73.238;2023-12-14T15:21:31;0;0;
83626;PMS5003;73589;41.158;-73.238;2023-12-14T15:24:00;0;0;
83626;PMS5003;73589;41.158;-73.238;2023-12-14T15:26:32;1;1;
83626;PMS5003;73589;41.158;-73.238;2023-12-14T15:29:02;0;0;
83626;PMS5003;73589;41.158;-73.238;2023-12-14T15:31:31;1;0;
83626;PMS5003;73589;41.158;-73.238;2023-12-14T15:34:03;0;0;
83626;PMS5003;73589;41.158;-73.238;2023-12-14T15:36:33;2;1;
83626;PMS5003;73589;41.158;-73.238;2023-12-14T15:39:04;0;0;
83626;PMS5003;73589;41.158;-73.238;2023-12-14T15:41:35;1;0;
83626;PMS5003;73589;41.158;-73.238;2023-12-14T15:44:05;1;0;
83626;PMS5003;73589;41.158;-73.238;2023-12-14T15:46:36;0;0;
83626;PMS5003;73589;41.158;-73.238;2023-12-14T15:49:06;0;0;
83626;PMS5003;73589;41.158;-73.238;2023-12-14T15:51:38;1;0;
83626;PMS5003;73589;41.158;-73.238;2023-12-14T15:54:07;0;0;
83626;PMS5003;73589;41.158;-73.238;2023-12-14T15:56:37;0;0;
83626;PMS5003;73589;41.158;-73.238;2023-12-14T15:59:07;1;1;
83626;PMS5003;73589;41.158;-73.238;2023-12-14T16:01:38;0;0;
83626;PMS5003;73589;41.158;-73.238;2023-12-14T16:04:08;0;0;
83626;PMS5003;73589;41.158;-73.238;2023-12-14T16:06:38;0;0;
83626;PMS5003;73589;41.158;-73.238;2023-12-14T16:09:09;0;0;
83626;PMS5003;73589;41.158;-73.238;2023-12-14T16:11:39;0;0;
83626;PMS5003;73589;41.158;-73.238;2023-12-14T16:14:10;0;0;
83626;PMS5003;73589;41.158;-73.238;2023-12-14T16:16:41;0;0;
83626;PMS5003;73589;41.158;-73.238;2023-12-14T16:19:11;0;0;
83626;PMS5003;73589;41.158;-73.238;2023-12-14T16:21:42;0;0;
83626;PMS5003;73589;41.158;-73.238;2023-12-14T16:24:12;0;0;
83626;PMS5003;73589;41.158;-73.238;2023-12-14T16:26:42;0;0;
83626;PMS5003;73589;41.158;-73.238;2023-12-14T16:29:14;0;0;
83626;PMS5003;73589;41.158;-73.238;2023-12-14T16:31:44;0;0;
83626;PMS5003;73589;41.158;-73.238;2023-12-14T16:34:14;0;0;
83626;PMS5003;73589;41.158;-73.238;2023-12-14T16:36:46;0;0;
83626;PMS5003;73589;41.158;-73.238;2023-12-14T16:39:15;0;0;
83626;PMS5003;73589;41.158;-73.238;2023-12-14T16:41:46;0;0;
83626;PMS5003;73589;41.158;-73.238;2023-12-14T16:44:17;0;0;